Time;durP1;ratioP1;P1;durP2;ratioP2;P2;SDS_P1;SDS_P2;PMS_P1;PMS_P2;Temp;Humidity;BMP_temperature;BMP_pressure;BME280_temperature;BME280_humidity;BME280_pressure;Samples;Min_cycle;Max_cycle;Signal;HPM_P1;HPM_P2
2021/04/15 00:02:00;;;;;;;10.07;8.30;;;0.00;99.90;;;;;;4986747;28;20211;-72
2021/04/15 00:04:26;;;;;;;12.00;8.52;;;0.00;99.90;;;;;;4987116;28;20207;-72
2021/04/15 00:06:53;;;;;;;14.05;8.60;;;0.00;99.90;;;;;;4987240;28;20682;-73
2021/04/15 00:09:23;;;;;;;11.30;8.18;;;-0.10;99.90;;;;;;4986877;28;20220;-72
2021/04/15 00:11:50;;;;;;;11.18;9.20;;;-0.10;99.90;;;;;;4986840;28;20199;-72
2021/04/15 00:14:19;;;;;;;14.55;8.52;;;-0.10;99.90;;;;;;4987026;28;21011;-72
2021/04/15 00:16:46;;;;;;;10.50;8.10;;;-0.10;99.90;;;;;;4986942;28;20207;-72
2021/04/15 00:19:15;;;;;;;12.35;8.02;;;-0.20;99.90;;;;;;4986956;28;20284;-72
2021/04/15 00:21:42;;;;;;;9.60;8.27;;;-0.20;99.90;;;;;;4986323;28;20211;-73
2021/04/15 00:24:08;;;;;;;10.52;9.05;;;-0.30;99.90;;;;;;4986868;28;20210;-73
2021/04/15 00:26:35;;;;;;;10.80;9.02;;;-0.30;99.90;;;;;;4986726;28;20207;-73
2021/04/15 00:29:01;;;;;;;12.15;9.65;;;-0.30;99.90;;;;;;4986640;28;20219;-73
2021/04/15 00:31:28;;;;;;;12.55;9.50;;;-0.40;99.90;;;;;;4986006;28;20222;-73
2021/04/15 00:33:56;;;;;;;11.93;8.80;;;-0.40;99.90;;;;;;4986787;28;20203;-73
2021/04/15 00:36:25;;;;;;;12.63;10.07;;;-0.50;99.90;;;;;;4986414;28;20207;-72
2021/04/15 00:38:52;;;;;;;13.85;10.70;;;-0.40;99.90;;;;;;4986289;28;20767;-73
2021/04/15 00:41:18;;;;;;;10.95;9.20;;;-0.40;99.90;;;;;;4986066;28;20233;-73
2021/04/15 00:43:46;;;;;;;12.77;10.70;;;-0.50;99.90;;;;;;4986544;28;20208;-73
2021/04/15 00:46:52;;;;;;;14.23;9.95;;;-0.50;99.90;;;;;;4986797;28;20211;-73
2021/04/15 00:49:27;;;;;;;11.63;9.90;;;-0.60;99.90;;;;;;4986471;28;20285;-73
2021/04/15 00:51:57;;;;;;;11.57;9.80;;;-0.60;99.90;;;;;;4986668;28;20469;-73
2021/04/15 00:54:39;;;;;;;15.05;9.85;;;-0.60;99.90;;;;;;4986189;28;20209;-73
2021/04/15 00:57:10;;;;;;;15.07;10.98;;;-0.60;99.90;;;;;;4986512;28;20222;-72
2021/04/15 00:59:36;;;;;;;12.90;10.50;;;-0.60;99.90;;;;;;4986045;28;20242;-72
2021/04/15 01:02:03;;;;;;;14.10;10.80;;;-0.60;99.90;;;;;;4985740;28;20215;-72
2021/04/15 01:04:30;;;;;;;13.63;10.00;;;-0.70;99.90;;;;;;4986109;28;20199;-72
2021/04/15 01:06:56;;;;;;;16.58;10.80;;;-0.70;99.90;;;;;;4986312;28;20207;-73
2021/04/15 01:09:23;;;;;;;12.43;10.82;;;-0.60;99.90;;;;;;4985839;28;20246;-72
2021/04/15 01:12:07;;;;;;;15.00;10.82;;;-0.70;99.90;;;;;;4989205;28;20288;-72
2021/04/15 01:14:45;;;;;;;15.30;10.80;;;-0.70;99.90;;;;;;4989278;28;20213;-72
2021/04/15 01:17:18;;;;;;;14.73;11.63;;;-0.80;99.90;;;;;;4989323;28;20199;-72
2021/04/15 01:20:21;;;;;;;19.58;10.73;;;-0.80;99.90;;;;;;4989396;28;20277;-72
2021/04/15 01:23:01;;;;;;;12.55;11.25;;;-0.80;99.90;;;;;;4989555;28;20582;-73
2021/04/15 01:25:39;;;;;;;13.02;10.27;;;-0.80;99.90;;;;;;4991965;28;20720;-73
2021/04/15 01:28:17;;;;;;;16.02;11.80;;;-0.90;99.90;;;;;;4990661;28;20258;-73
2021/04/15 01:30:48;;;;;;;13.02;11.20;;;-0.90;99.90;;;;;;4989223;28;20211;-72
2021/04/15 01:33:18;;;;;;;15.00;11.52;;;-0.90;99.90;;;;;;4989713;28;20237;-72
2021/04/15 01:35:51;;;;;;;14.50;11.25;;;-0.90;99.90;;;;;;4989211;28;20203;-73
2021/04/15 01:38:24;;;;;;;15.20;11.35;;;-0.90;99.90;;;;;;4988941;28;20236;-73
2021/04/15 01:40:56;;;;;;;14.85;11.57;;;-0.90;99.90;;;;;;4989115;28;20199;-72
2021/04/15 01:43:30;;;;;;;17.40;10.82;;;-0.90;99.90;;;;;;4988863;28;20206;-72
2021/04/15 01:45:58;;;;;;;15.75;12.45;;;-1.00;99.90;;;;;;4989038;28;20206;-72
2021/04/15 01:48:28;;;;;;;14.27;11.25;;;-1.00;99.90;;;;;;4988735;28;20227;-72
2021/04/15 01:50:58;;;;;;;14.07;10.68;;;-1.00;99.90;;;;;;4988756;28;20203;-72
2021/04/15 01:53:29;;;;;;;15.57;10.75;;;-1.00;99.90;;;;;;4988734;28;20207;-72
2021/04/15 01:56:02;;;;;;;14.93;11.25;;;-1.10;99.90;;;;;;4988899;28;20235;-72
2021/04/15 01:58:34;;;;;;;13.65;11.32;;;-1.10;99.90;;;;;;4988298;28;20235;-73
2021/04/15 02:01:06;;;;;;;17.23;11.75;;;-1.10;99.90;;;;;;4988541;28;20213;-72
2021/04/15 02:03:36;;;;;;;15.85;11.13;;;-1.10;99.90;;;;;;4988605;28;20230;-73
2021/04/15 02:06:06;;;;;;;16.00;11.68;;;-1.10;99.90;;;;;;4988667;28;20260;-73
2021/04/15 02:08:35;;;;;;;14.00;11.07;;;-1.10;99.90;;;;;;4988844;28;20249;-73
2021/04/15 02:11:07;;;;;;;13.93;10.90;;;-1.10;99.90;;;;;;4988116;28;20203;-73
2021/04/15 02:13:37;;;;;;;12.75;10.35;;;-1.20;99.90;;;;;;4988583;28;20355;-72
2021/04/15 02:16:06;;;;;;;17.27;11.35;;;-1.20;99.90;;;;;;4988522;28;20206;-73
2021/04/15 02:18:37;;;;;;;18.65;10.43;;;-1.20;99.90;;;;;;4988134;28;20230;-73
2021/04/15 02:21:09;;;;;;;15.43;11.38;;;-1.20;99.90;;;;;;4987736;28;20227;-72
2021/04/15 02:23:43;;;;;;;13.57;10.30;;;-1.10;99.90;;;;;;4988407;28;20211;-72
2021/04/15 02:26:14;;;;;;;15.02;11.05;;;-1.10;99.90;;;;;;4988659;28;20203;-73
2021/04/15 02:28:46;;;;;;;12.38;10.32;;;-1.20;99.90;;;;;;4988127;28;20230;-74
2021/04/15 02:31:17;;;;;;;12.07;10.02;;;-1.20;99.90;;;;;;4988103;28;20203;-73
2021/04/15 02:33:49;;;;;;;13.10;10.43;;;-1.20;99.90;;;;;;4988235;28;20206;-73
2021/04/15 02:36:17;;;;;;;13.57;10.05;;;-1.20;99.90;;;;;;4988409;28;20599;-73
2021/04/15 02:38:49;;;;;;;16.00;9.77;;;-1.20;99.90;;;;;;4988200;28;20638;-72
2021/04/15 02:41:20;;;;;;;13.20;10.13;;;-1.20;99.90;;;;;;4987600;28;20203;-73
2021/04/15 02:43:51;;;;;;;13.27;8.80;;;-1.30;99.90;;;;;;4988118;28;20588;-73
2021/04/15 02:46:26;;;;;;;12.02;9.05;;;-1.30;99.90;;;;;;4988193;28;20203;-73
2021/04/15 02:48:57;;;;;;;11.32;8.40;;;-1.30;99.90;;;;;;4987919;28;20218;-72
2021/04/15 02:51:32;;;;;;;11.95;8.30;;;-1.30;99.90;;;;;;4987165;28;20207;-72
2021/04/15 02:54:03;;;;;;;14.70;9.48;;;-1.30;99.90;;;;;;4988038;28;20210;-72
2021/04/15 02:56:34;;;;;;;11.73;8.98;;;-1.30;99.90;;;;;;4987820;28;20214;-73
2021/04/15 02:59:05;;;;;;;10.90;8.35;;;-1.30;99.90;;;;;;4987911;28;20239;-73
2021/04/15 03:01:36;;;;;;;10.93;7.82;;;-1.30;99.90;;;;;;4987608;28;20674;-73
2021/04/15 03:04:07;;;;;;;11.45;8.68;;;-1.40;99.90;;;;;;4987598;28;20207;-73
2021/04/15 03:06:35;;;;;;;9.77;8.20;;;-1.40;99.90;;;;;;4987578;28;20254;-73
2021/04/15 03:09:05;;;;;;;10.50;8.35;;;-1.40;99.90;;;;;;4987626;28;20753;-73
2021/04/15 03:11:38;;;;;;;13.20;9.23;;;-1.40;99.90;;;;;;4987068;28;20552;-73
2021/04/15 03:14:09;;;;;;;11.73;8.52;;;-1.50;99.90;;;;;;4987991;28;20223;-73
2021/04/15 03:16:39;;;;;;;10.52;8.32;;;-1.50;99.90;;;;;;4987734;28;20207;-72
2021/04/15 03:19:13;;;;;;;9.73;8.70;;;-1.50;99.90;;;;;;4988503;28;20223;-72
2021/04/15 03:21:46;;;;;;;13.02;8.40;;;-1.50;99.90;;;;;;4987079;28;20284;-73
2021/04/15 03:24:18;;;;;;;9.82;8.00;;;-1.60;99.90;;;;;;4987663;28;20215;-73
2021/04/15 03:26:51;;;;;;;10.82;9.25;;;-1.60;99.90;;;;;;4987616;28;20203;-72
2021/04/15 03:29:23;;;;;;;10.35;8.38;;;-1.60;99.90;;;;;;4988086;28;20215;-72
2021/04/15 03:32:02;;;;;;;9.07;7.07;;;-1.60;99.90;;;;;;4987673;28;20706;-73
2021/04/15 03:34:37;;;;;;;9.32;7.93;;;-1.60;99.90;;;;;;4986713;28;20203;-71
2021/04/15 03:37:04;;;;;;;10.55;8.18;;;-1.70;99.90;;;;;;4987270;28;20210;-72
2021/04/15 03:39:33;;;;;;;14.00;8.23;;;-1.70;99.90;;;;;;4987775;28;20280;-72
2021/04/15 03:42:07;;;;;;;10.98;7.35;;;-1.70;99.90;;;;;;4987569;28;20195;-72
2021/04/15 03:44:38;;;;;;;8.23;7.32;;;-1.70;99.90;;;;;;4988591;28;20195;-71
2021/04/15 03:47:09;;;;;;;9.25;7.10;;;-1.70;99.90;;;;;;4987284;28;20808;-70
2021/04/15 03:49:40;;;;;;;10.85;8.02;;;-1.70;99.90;;;;;;4988949;28;20223;-72
2021/04/15 03:52:12;;;;;;;12.13;9.13;;;-1.70;99.90;;;;;;4987614;28;20200;-71
2021/04/15 03:54:41;;;;;;;11.95;7.93;;;-1.80;99.90;;;;;;4987794;28;20203;-72
2021/04/15 03:57:11;;;;;;;12.15;7.65;;;-1.80;99.90;;;;;;4988420;28;20241;-72
2021/04/15 03:59:46;;;;;;;8.55;6.90;;;-1.80;99.90;;;;;;4986849;28;20294;-72
2021/04/15 04:02:15;;;;;;;11.30;7.70;;;-1.80;99.90;;;;;;4988898;28;20198;-73
2021/04/15 04:04:48;;;;;;;9.25;6.55;;;-1.70;99.90;;;;;;4986612;28;20199;-72
2021/04/15 04:07:19;;;;;;;8.95;7.30;;;-1.80;99.90;;;;;;4986642;28;20264;-72
2021/04/15 04:09:54;;;;;;;9.68;7.78;;;-1.70;99.90;;;;;;4986768;28;20729;-73
2021/04/15 04:12:25;;;;;;;10.63;6.85;;;-1.80;99.90;;;;;;4986131;28;20194;-72
2021/04/15 04:14:57;;;;;;;10.25;7.40;;;-1.80;99.90;;;;;;4987911;28;20684;-72
2021/04/15 04:17:31;;;;;;;10.30;7.32;;;-1.80;99.90;;;;;;4984999;28;20960;-71
2021/04/15 04:19:57;;;;;;;8.55;7.20;;;-1.80;99.90;;;;;;4986878;28;20304;-72
2021/04/15 04:22:33;;;;;;;9.77;7.82;;;-1.80;99.90;;;;;;5095072;22;20223;-72
2021/04/15 04:25:05;;;;;;;10.07;7.63;;;-1.80;99.90;;;;;;5067953;28;20204;-71
2021/04/15 04:27:36;;;;;;;7.50;6.47;;;-1.80;99.90;;;;;;5051466;28;20204;-70
2021/04/15 04:30:07;;;;;;;10.07;6.97;;;-1.80;99.90;;;;;;5047720;28;20193;-72
2021/04/15 04:32:36;;;;;;;14.20;7.18;;;-1.80;99.90;;;;;;5044885;28;20201;-72
2021/04/15 04:35:05;;;;;;;9.20;7.57;;;-1.80;99.90;;;;;;5047484;28;20209;-72
2021/04/15 04:37:37;;;;;;;7.35;6.70;;;-1.80;99.90;;;;;;5047856;28;20205;-71
2021/04/15 04:40:06;;;;;;;8.50;7.45;;;-1.80;99.90;;;;;;5048196;28;20221;-72
2021/04/15 04:42:39;;;;;;;10.80;7.43;;;-1.70;99.90;;;;;;5047652;28;20197;-72
2021/04/15 04:45:08;;;;;;;11.10;7.72;;;-1.70;99.90;;;;;;5050637;28;20579;-72
2021/04/15 04:47:41;;;;;;;9.65;6.82;;;-1.70;99.90;;;;;;5051801;28;20205;-72
2021/04/15 04:50:13;;;;;;;8.00;6.75;;;-1.70;99.90;;;;;;5052083;28;20231;-72
2021/04/15 04:52:41;;;;;;;8.32;7.45;;;-1.70;99.90;;;;;;5052035;28;20313;-72
2021/04/15 04:55:16;;;;;;;12.00;7.57;;;-1.70;99.90;;;;;;5051822;28;20216;-72
2021/04/15 04:57:43;;;;;;;13.55;7.15;;;-1.60;99.90;;;;;;5051834;28;20234;-71
2021/04/15 05:00:13;;;;;;;12.88;7.35;;;-1.70;99.90;;;;;;5051043;28;20229;-72
2021/04/15 05:02:41;;;;;;;9.35;6.70;;;-1.70;99.90;;;;;;5051952;28;20197;-72
2021/04/15 05:05:15;;;;;;;8.52;7.63;;;-1.70;99.90;;;;;;5051470;28;20209;-71
2021/04/15 05:07:43;;;;;;;7.63;6.93;;;-1.60;99.90;;;;;;5052263;28;20201;-72
2021/04/15 05:10:15;;;;;;;8.18;6.68;;;-1.60;99.90;;;;;;5050907;28;20722;-71
2021/04/15 05:12:43;;;;;;;11.88;7.70;;;-1.60;99.90;;;;;;5051692;28;20746;-72
2021/04/15 05:15:10;;;;;;;9.38;7.53;;;-1.50;99.90;;;;;;5051164;28;20251;-72
2021/04/15 05:17:39;;;;;;;10.02;7.15;;;-1.50;99.90;;;;;;5051269;28;20270;-72
2021/04/15 05:20:10;;;;;;;14.02;8.23;;;-1.40;99.90;;;;;;5051336;28;20221;-72
2021/04/15 05:22:41;;;;;;;14.05;7.82;;;-1.40;99.90;;;;;;5051163;28;20209;-71
2021/04/15 05:25:14;;;;;;;8.35;7.25;;;-1.40;99.90;;;;;;5051628;28;20209;-71
2021/04/15 05:27:42;;;;;;;10.70;7.40;;;-1.30;99.90;;;;;;5051629;28;20216;-72
2021/04/15 05:30:16;;;;;;;8.88;6.82;;;-1.20;99.90;;;;;;5051164;28;20197;-72
2021/04/15 05:32:45;;;;;;;8.13;5.82;;;-1.20;99.90;;;;;;5051233;28;20220;-71
2021/04/15 05:35:18;;;;;;;10.27;6.72;;;-1.10;99.90;;;;;;5051180;28;20197;-71
2021/04/15 05:37:45;;;;;;;7.78;6.47;;;-1.00;99.90;;;;;;5051151;28;20201;-72
2021/04/15 05:40:12;;;;;;;10.80;6.25;;;-1.00;99.90;;;;;;5050581;28;20291;-71
2021/04/15 05:42:44;;;;;;;7.78;5.88;;;-0.90;99.90;;;;;;5050497;28;20216;-72
2021/04/15 05:45:16;;;;;;;10.70;4.65;;;-0.80;99.90;;;;;;5051186;28;20205;-72
2021/04/15 05:47:56;;;;;;;10.48;5.88;;;-0.60;99.90;;;;;;5051145;28;20197;-72
2021/04/15 05:50:26;;;;;;;6.13;5.45;;;-0.40;99.90;;;;;;5050756;28;20322;-73
2021/04/15 05:52:56;;;;;;;6.57;4.88;;;-0.30;99.90;;;;;;5051471;28;20574;-71
2021/04/15 05:55:29;;;;;;;7.90;4.85;;;-0.30;99.90;;;;;;5050098;28;20197;-72
2021/04/15 05:58:02;;;;;;;6.90;5.15;;;-0.20;99.90;;;;;;5050941;28;20232;-73
2021/04/15 06:00:38;;;;;;;5.65;4.32;;;-0.10;99.90;;;;;;5050115;28;20232;-72
2021/04/15 06:03:23;;;;;;;5.32;4.82;;;0.00;99.90;;;;;;5051095;28;20204;-72
2021/04/15 06:05:56;;;;;;;5.82;4.60;;;0.10;99.90;;;;;;5050869;28;20200;-73
2021/04/15 06:08:23;;;;;;;5.50;4.38;;;0.20;99.90;;;;;;5050829;28;20225;-72
2021/04/15 06:10:55;;;;;;;5.18;4.72;;;0.30;99.90;;;;;;5050144;28;20203;-73
2021/04/15 06:13:30;;;;;;;5.55;4.97;;;0.40;99.90;;;;;;5050615;28;20201;-73
2021/04/15 06:16:01;;;;;;;4.65;4.18;;;0.50;99.90;;;;;;5051029;28;20225;-72
2021/04/15 06:18:33;;;;;;;4.47;4.05;;;0.60;99.90;;;;;;5050547;28;20642;-72
2021/04/15 06:21:02;;;;;;;4.57;4.18;;;0.80;99.90;;;;;;5050508;28;20603;-71
2021/04/15 06:23:33;;;;;;;6.57;4.07;;;1.00;99.90;;;;;;5051016;28;20212;-71
2021/04/15 06:26:00;;;;;;;6.03;4.22;;;1.10;99.90;;;;;;5051425;28;20212;-72
2021/04/15 06:28:31;;;;;;;5.07;4.50;;;1.10;99.90;;;;;;5050228;28;20225;-71
2021/04/15 06:31:13;;;;;;;4.65;4.13;;;1.20;99.90;;;;;;5049800;28;20197;-72
2021/04/15 06:33:41;;;;;;;5.28;4.72;;;1.40;99.90;;;;;;5049974;28;20687;-70
2021/04/15 06:36:18;;;;;;;6.15;4.70;;;1.40;99.90;;;;;;5050293;28;20209;-72
2021/04/15 06:38:53;;;;;;;6.38;4.25;;;1.50;99.90;;;;;;5050132;28;20263;-72
2021/04/15 06:41:49;;;;;;;4.40;4.00;;;1.60;99.90;;;;;;5049516;28;20354;-71
2021/04/15 06:44:40;;;;;;;10.85;6.43;;;1.70;99.90;;;;;;5049938;28;20197;-71
2021/04/15 06:47:39;;;;;;;10.73;6.60;;;1.70;99.90;;;;;;5009388;28;20219;-72
2021/04/15 06:50:27;;;;;;;6.28;4.97;;;1.80;99.90;;;;;;5045674;28;20542;-72
2021/04/15 06:53:14;;;;;;;5.90;4.45;;;1.90;99.90;;;;;;5042974;28;20212;-72
2021/04/15 06:55:52;;;;;;;9.43;6.65;;;2.00;99.90;;;;;;5046126;28;20205;-71
2021/04/15 06:58:44;;;;;;;6.28;4.45;;;2.00;99.90;;;;;;5044665;28;20224;-72
2021/04/15 07:01:46;;;;;;;10.20;5.03;;;2.10;99.90;;;;;;5046798;28;20576;-72
2021/04/15 07:04:17;;;;;;;8.90;5.93;;;2.20;99.90;;;;;;5047170;28;20197;-72
2021/04/15 07:06:55;;;;;;;6.40;5.00;;;2.40;99.90;;;;;;5045023;28;20695;-71
2021/04/15 07:09:50;;;;;;;7.15;4.72;;;2.50;99.90;;;;;;5043533;28;20614;-72
2021/04/15 07:12:47;;;;;;;5.57;4.70;;;2.60;99.90;;;;;;5048538;28;20205;-71
2021/04/15 07:15:32;;;;;;;7.55;4.78;;;2.60;99.90;;;;;;5048693;28;20208;-71
2021/04/15 07:18:10;;;;;;;7.07;5.05;;;2.80;99.90;;;;;;5049175;28;20274;-72
2021/04/15 07:20:53;;;;;;;5.63;5.10;;;3.00;99.90;;;;;;5048417;28;20225;-72
2021/04/15 07:24:00;;;;;;;6.40;5.10;;;3.00;99.90;;;;;;5048684;28;20217;-71
2021/04/15 07:26:57;;;;;;;7.85;5.60;;;3.10;99.90;;;;;;5047707;28;20247;-72
2021/04/15 07:29:34;;;;;;;8.15;4.93;;;3.30;99.90;;;;;;5048633;28;20225;-71
2021/04/15 07:32:14;;;;;;;7.00;5.07;;;3.40;99.90;;;;;;5048604;28;20213;-72
2021/04/15 07:35:00;;;;;;;5.90;4.68;;;3.50;99.90;;;;;;5048596;28;20703;-71
2021/04/15 07:37:48;;;;;;;9.07;4.82;;;3.70;99.90;;;;;;5048236;28;20207;-71
2021/04/15 07:40:56;;;;;;;6.40;4.90;;;3.70;99.90;;;;;;5048191;28;20704;-72
2021/04/15 07:43:58;;;;;;;7.60;5.60;;;3.80;99.90;;;;;;5048173;28;20208;-72
2021/04/15 07:46:34;;;;;;;5.55;4.68;;;4.10;99.90;;;;;;5048784;28;20200;-71
2021/04/15 07:49:18;;;;;;;10.45;5.30;;;4.30;99.90;;;;;;5047911;28;20254;-71
2021/04/15 07:52:06;;;;;;;6.75;5.80;;;4.50;99.90;;;;;;5048071;28;20201;-72
2021/04/15 07:54:47;;;;;;;5.43;4.18;;;4.60;99.90;;;;;;5035555;28;20201;-72
2021/04/15 07:57:59;;;;;;;8.00;5.68;;;4.90;99.90;;;;;;5048383;28;20205;-72
2021/04/15 08:00:39;;;;;;;4.57;4.18;;;5.10;99.90;;;;;;5047544;28;20246;-72
2021/04/15 08:03:24;;;;;;;5.80;4.88;;;5.40;99.80;;;;;;5048734;28;20622;-72
2021/04/15 08:06:02;;;;;;;6.35;4.35;;;5.80;99.10;;;;;;5048579;28;20207;-72
2021/04/15 08:08:54;;;;;;;7.38;5.03;;;6.10;98.00;;;;;;5048438;28;20707;-72
2021/04/15 08:11:47;;;;;;;7.88;5.22;;;6.40;98.10;;;;;;5047947;28;20208;-72
2021/04/15 08:14:53;;;;;;;5.30;4.80;;;6.70;97.50;;;;;;5034051;28;20288;-72
2021/04/15 08:17:37;;;;;;;5.50;4.45;;;7.10;95.80;;;;;;5047982;28;20255;-72
2021/04/15 08:20:41;;;;;;;9.40;4.35;;;7.60;95.10;;;;;;5050922;28;20711;-72
2021/04/15 08:23:40;;;;;;;6.70;4.55;;;8.00;94.00;;;;;;5052139;28;20222;-71
2021/04/15 08:26:38;;;;;;;5.43;4.93;;;8.40;92.40;;;;;;5052122;28;20725;-72
2021/04/15 08:29:23;;;;;;;5.28;4.50;;;8.60;92.40;;;;;;5051872;28;20224;-72
2021/04/15 08:32:08;;;;;;;8.40;5.03;;;8.80;90.70;;;;;;5051488;28;20664;-72
2021/04/15 08:34:48;;;;;;;5.30;4.65;;;9.20;89.30;;;;;;5052408;28;20208;-72
2021/04/15 08:37:30;;;;;;;5.90;4.65;;;9.90;88.60;;;;;;5051470;28;20204;-71
2021/04/15 08:40:07;;;;;;;5.07;4.57;;;10.50;86.50;;;;;;5052059;28;20224;-72
2021/04/15 08:42:42;;;;;;;6.00;4.57;;;11.00;83.30;;;;;;5051969;28;20551;-71
2021/04/15 08:45:18;;;;;;;6.13;5.03;;;11.60;83.60;;;;;;5051777;28;20259;-71
2021/04/15 08:47:51;;;;;;;6.07;5.07;;;11.70;81.40;;;;;;5051773;28;20208;-72
2021/04/15 08:50:28;;;;;;;5.80;4.82;;;11.70;77.90;;;;;;5050976;28;20618;-71
2021/04/15 08:53:01;;;;;;;7.78;4.90;;;12.30;78.30;;;;;;5051995;28;20201;-72
2021/04/15 08:55:35;;;;;;;5.45;3.80;;;12.60;76.70;;;;;;5051663;28;20205;-72
2021/04/15 08:58:15;;;;;;;6.10;4.40;;;13.30;76.00;;;;;;5051279;28;20682;-71
2021/04/15 09:00:48;;;;;;;4.70;3.92;;;14.10;74.00;;;;;;5051379;28;20228;-72
2021/04/15 09:03:26;;;;;;;6.43;4.03;;;13.40;70.60;;;;;;5050818;28;20206;-72
2021/04/15 09:06:17;;;;;;;6.65;3.95;;;12.80;71.80;;;;;;5051603;28;20697;-72
2021/04/15 09:09:05;;;;;;;5.55;4.47;;;12.80;71.90;;;;;;5051485;28;20221;-72
2021/04/15 09:11:38;;;;;;;5.60;4.55;;;12.90;70.30;;;;;;5037999;28;20204;-72
2021/04/15 09:14:16;;;;;;;4.30;3.90;;;12.80;70.70;;;;;;5051094;28;20201;-71
2021/04/15 09:16:49;;;;;;;4.78;4.10;;;12.00;72.00;;;;;;5051527;28;20242;-71
2021/04/15 09:19:48;;;;;;;5.03;4.55;;;11.00;71.30;;;;;;5050986;28;20229;-71
2021/04/15 09:22:39;;;;;;;4.40;4.00;;;10.30;74.50;;;;;;5050624;28;20626;-71
2021/04/15 09:25:10;;;;;;;6.78;3.88;;;10.40;73.00;;;;;;5051488;28;20699;-71
2021/04/15 09:27:46;;;;;;;4.45;4.05;;;10.20;72.50;;;;;;5050657;28;20201;-72
2021/04/15 09:30:21;;;;;;;5.70;5.10;;;9.80;73.80;;;;;;5049765;28;20201;-72
2021/04/15 09:32:58;;;;;;;7.22;5.28;;;9.80;75.70;;;;;;5050940;28;20680;-72
2021/04/15 09:35:43;;;;;;;5.20;4.35;;;9.90;76.00;;;;;;5051192;28;20205;-72
2021/04/15 09:38:46;;;;;;;4.82;4.32;;;9.70;74.90;;;;;;5050630;28;20232;-71
2021/04/15 09:41:54;;;;;;;6.53;4.20;;;10.00;75.20;;;;;;5050280;28;20591;-72
2021/04/15 09:44:42;;;;;;;5.25;3.20;;;9.70;74.30;;;;;;5045279;28;20204;-71
2021/04/15 09:47:27;;;;;;;5.80;4.28;;;10.90;74.10;;;;;;5050664;28;20311;-71
2021/04/15 09:50:06;;;;;;;3.92;3.53;;;12.60;72.70;;;;;;5050912;28;20224;-72
2021/04/15 09:53:04;;;;;;;4.90;3.72;;;13.90;69.50;;;;;;5050388;28;20197;-73
2021/04/15 09:55:49;;;;;;;4.27;3.23;;;14.20;64.90;;;;;;5049556;28;20691;-72
2021/04/15 09:58:28;;;;;;;5.50;4.05;;;13.30;66.70;;;;;;5050217;28;20471;-72
2021/04/15 10:00:59;;;;;;;5.95;3.70;;;12.70;68.00;;;;;;5050213;28;20228;-72
2021/04/15 10:03:34;;;;;;;6.63;4.32;;;12.40;67.00;;;;;;5049965;28;20581;-72
2021/04/15 10:06:16;;;;;;;5.63;4.30;;;11.60;68.50;;;;;;5050362;28;20205;-71
2021/04/15 10:09:19;;;;;;;5.33;3.70;;;11.70;69.90;;;;;;5050273;28;20723;-72
2021/04/15 10:12:08;;;;;;;4.65;4.25;;;13.50;68.80;;;;;;5050040;28;20451;-72
2021/04/15 10:14:55;;;;;;;4.80;3.50;;;13.50;65.70;;;;;;5050015;28;20228;-71
2021/04/15 10:17:37;;;;;;;5.00;3.63;;;13.50;64.90;;;;;;5049819;28;20802;-72
2021/04/15 10:20:18;;;;;;;4.17;3.50;;;13.30;65.90;;;;;;5049992;28;21081;-72
2021/04/15 10:22:57;;;;;;;3.83;3.07;;;13.50;64.00;;;;;;5100588;22;20943;-72
2021/04/15 10:25:27;;;;;;;2.73;2.40;;;14.00;63.10;;;;;;4980973;28;20802;-73
2021/04/15 10:28:11;;;;;;;4.77;3.17;;;14.50;62.80;;;;;;4990833;28;20551;-72
2021/04/15 10:31:11;;;;;;;4.40;3.10;;;15.80;62.80;;;;;;5006807;28;20457;-73
2021/04/15 10:34:16;;;;;;;4.97;3.00;;;16.50;58.90;;;;;;5007740;28;20457;-72
2021/04/15 10:36:54;;;;;;;3.27;2.97;;;15.10;59.10;;;;;;4988990;28;20814;-72
2021/04/15 10:40:03;;;;;;;3.90;2.80;;;13.60;60.00;;;;;;4987651;28;20830;-72
2021/04/15 10:42:56;;;;;;;2.83;2.63;;;12.50;61.40;;;;;;4926614;29;20556;-72
2021/04/15 10:46:16;;;;;;;3.20;2.80;;;11.90;62.90;;;;;;4929034;29;20461;-72
2021/04/15 10:48:50;;;;;;;3.65;3.17;;;11.30;64.50;;;;;;4987758;28;20485;-72
2021/04/15 10:51:33;;;;;;;4.35;3.90;;;10.90;67.30;;;;;;4988028;28;20591;-73
2021/04/15 10:54:05;;;;;;;4.07;3.33;;;10.40;70.10;;;;;;4985199;28;20276;-72
2021/04/15 10:56:42;;;;;;;3.30;3.00;;;10.20;70.20;;;;;;4987676;28;20248;-72
2021/04/15 10:59:14;;;;;;;4.25;3.38;;;10.00;69.90;;;;;;4993063;28;20218;-72
2021/04/15 11:01:44;;;;;;;3.25;3.05;;;10.00;71.20;;;;;;5006192;28;20198;-72
2021/04/15 11:04:24;;;;;;;6.43;3.30;;;9.80;73.00;;;;;;5002217;28;20251;-72
2021/04/15 11:06:53;;;;;;;5.20;3.42;;;9.80;75.70;;;;;;5009978;28;20206;-72
2021/04/15 11:09:31;;;;;;;4.28;3.22;;;9.90;76.50;;;;;;5003260;28;20314;-72
2021/04/15 11:12:04;;;;;;;4.20;3.80;;;10.00;72.80;;;;;;4993443;28;20220;-72
2021/04/15 11:14:35;;;;;;;4.93;3.53;;;10.00;72.80;;;;;;5000588;28;20576;-72
2021/04/15 11:17:14;;;;;;;5.65;3.75;;;10.10;72.20;;;;;;4991784;28;20198;-73
2021/04/15 11:19:43;;;;;;;4.75;3.30;;;11.50;70.90;;;;;;4987167;28;20249;-71
2021/04/15 11:22:18;;;;;;;4.63;3.35;;;13.40;66.40;;;;;;4985782;28;20199;-72
2021/04/15 11:24:46;;;;;;;3.63;3.20;;;15.00;63.60;;;;;;4987335;28;20204;-72
2021/04/15 11:27:13;;;;;;;7.97;5.37;;;16.30;62.30;;;;;;4987064;28;21044;-72
2021/04/15 11:29:43;;;;;;;7.87;5.10;;;17.30;60.00;;;;;;4987413;28;20482;-72
2021/04/15 11:32:26;;;;;;;8.43;3.97;;;17.60;58.40;;;;;;4986217;28;20462;-71
2021/04/15 11:35:06;;;;;;;5.00;2.60;;;16.80;57.80;;;;;;4986854;28;20466;-71
2021/04/15 11:37:33;;;;;;;4.83;3.33;;;16.70;60.80;;;;;;4986911;28;20466;-72
2021/04/15 11:40:22;;;;;;;3.57;3.10;;;17.40;56.60;;;;;;4986522;28;20509;-73
2021/04/15 11:42:49;;;;;;;4.50;3.60;;;16.80;57.00;;;;;;4995336;28;20526;-73
2021/04/15 11:45:27;;;;;;;4.07;3.00;;;15.90;59.90;;;;;;4986447;28;20511;-73
2021/04/15 11:48:10;;;;;;;3.50;3.00;;;15.60;60.00;;;;;;4986779;28;20534;-73
2021/04/15 11:50:36;;;;;;;3.13;2.80;;;14.70;59.80;;;;;;4986448;28;20870;-73
2021/04/15 11:53:23;;;;;;;3.73;3.07;;;14.10;61.50;;;;;;4985954;28;20463;-72
2021/04/15 11:55:50;;;;;;;4.07;3.23;;;15.00;63.00;;;;;;4986457;28;20527;-73
2021/04/15 11:58:31;;;;;;;3.60;3.30;;;16.50;60.80;;;;;;4986207;28;20907;-73
2021/04/15 12:01:00;;;;;;;3.60;3.30;;;17.70;57.60;;;;;;4986234;28;20620;-72
2021/04/15 12:03:27;;;;;;;3.03;2.60;;;18.20;59.30;;;;;;4985866;28;20466;-72
2021/04/15 12:05:59;;;;;;;4.63;2.90;;;18.50;57.40;;;;;;4986163;28;20459;-72
2021/04/15 12:08:31;;;;;;;3.47;3.17;;;18.30;57.20;;;;;;4985768;28;20478;-72
2021/04/15 12:11:03;;;;;;;3.17;2.87;;;18.70;58.20;;;;;;4985744;28;20462;-72
2021/04/15 12:13:35;;;;;;;5.20;3.00;;;18.70;55.80;;;;;;4986415;28;20553;-72
2021/04/15 12:16:11;;;;;;;3.83;3.43;;;17.40;56.70;;;;;;4985815;28;20492;-71
2021/04/15 12:18:40;;;;;;;3.80;3.10;;;16.00;58.30;;;;;;4986022;28;20529;-72
2021/04/15 12:21:13;;;;;;;3.03;2.60;;;15.00;59.70;;;;;;4984622;28;21064;-72
2021/04/15 12:23:47;;;;;;;3.10;2.20;;;14.70;60.90;;;;;;4986291;28;20847;-71
2021/04/15 12:26:22;;;;;;;2.67;2.33;;;15.60;57.10;;;;;;4985883;28;20462;-73
2021/04/15 12:28:57;;;;;;;2.53;2.30;;;16.50;54.90;;;;;;4986011;28;20478;-73
2021/04/15 12:31:29;;;;;;;4.10;2.80;;;17.40;54.60;;;;;;4985449;28;20822;-73
2021/04/15 12:34:26;;;;;;;2.60;2.40;;;17.90;54.50;;;;;;5019012;28;20505;-73
2021/04/15 12:36:59;;;;;;;2.90;2.70;;;18.10;54.20;;;;;;5006799;28;20844;-73
2021/04/15 12:39:31;;;;;;;2.77;2.53;;;18.40;55.10;;;;;;5015533;28;20489;-72
2021/04/15 12:42:05;;;;;;;4.83;2.50;;;18.60;53.10;;;;;;5035093;28;20466;-73
2021/04/15 12:44:32;;;;;;;2.60;2.40;;;19.00;54.50;;;;;;5010939;28;20486;-71
2021/04/15 12:47:01;;;;;;;2.40;2.20;;;19.30;52.10;;;;;;5048585;28;20471;-71
2021/04/15 12:49:31;;;;;;;3.13;2.50;;;19.50;52.90;;;;;;5057367;28;20473;-72
2021/04/15 12:51:59;;;;;;;3.10;2.57;;;19.20;50.00;;;;;;5006877;28;21161;-72
2021/04/15 12:54:29;;;;;;;3.27;2.50;;;19.40;50.70;;;;;;5067604;28;20468;-72
2021/04/15 12:56:58;;;;;;;6.30;2.80;;;19.60;52.70;;;;;;4999408;28;20506;-72
2021/04/15 12:59:28;;;;;;;2.60;2.40;;;19.70;53.10;;;;;;5057277;28;20542;-71
2021/04/15 13:01:55;;;;;;;3.00;2.70;;;19.40;52.60;;;;;;5007309;28;20827;-71
2021/04/15 13:04:25;;;;;;;2.67;2.43;;;19.20;52.50;;;;;;5019671;28;20595;-71
2021/04/15 13:07:29;;;;;;;3.00;2.80;;;18.80;53.50;;;;;;5023367;28;20462;-71
2021/04/15 13:10:28;;;;;;;6.83;3.30;;;18.20;53.90;;;;;;4992840;28;20569;-71
2021/04/15 13:12:55;;;;;;;4.53;3.00;;;17.90;53.30;;;;;;5024772;28;20466;-71
2021/04/15 13:15:42;;;;;;;2.73;2.53;;;18.10;54.10;;;;;;5058732;28;20600;-71
2021/04/15 13:18:29;;;;;;;4.13;3.00;;;18.90;53.10;;;;;;5038323;28;20473;-72
2021/04/15 13:21:07;;;;;;;4.20;3.00;;;19.30;53.70;;;;;;5003037;28;20496;-72
2021/04/15 13:23:45;;;;;;;3.70;3.37;;;18.80;51.80;;;;;;5014079;28;20492;-71
2021/04/15 13:26:38;;;;;;;3.47;3.00;;;18.80;53.40;;;;;;5040362;28;20462;-72
2021/04/15 13:29:18;;;;;;;3.00;2.80;;;18.50;53.20;;;;;;5058903;28;20474;-72
2021/04/15 13:31:48;;;;;;;4.50;2.93;;;18.40;53.60;;;;;;5023215;28;20495;-72